sensor_id;sensor_type;location;lat;lon;timestamp;pressure;altitude;pressure_sealevel;temperature;humidity
41636;BME280;27623;51.966;4.602;2023-04-25T00:01:20;64073.34;;;8.55;95.47
41636;BME280;27623;51.966;4.602;2023-04-25T00:03:47;64059.94;;;8.52;94.83
41636;BME280;27623;51.966;4.602;2023-04-25T00:06:12;64092.41;;;8.58;93.64
41636;BME280;27623;51.966;4.602;2023-04-25T00:08:37;64041.78;;;8.54;93.47
41636;BME280;27623;51.966;4.602;2023-04-25T00:11:03;64025.50;;;8.46;94.10
41636;BME280;27623;51.966;4.602;2023-04-25T00:13:31;64048.53;;;8.41;94.36
41636;BME280;27623;51.966;4.602;2023-04-25T00:15:57;64063.94;;;8.44;94.50
41636;BME280;27623;51.966;4.602;2023-04-25T00:18:23;64027.31;;;8.50;94.09
41636;BME280;27623;51.966;4.602;2023-04-25T00:20:48;64053.97;;;8.39;93.82
41636;BME280;27623;51.966;4.602;2023-04-25T00:23:15;64029.31;;;8.28;95.07
41636;BME280;27623;51.966;4.602;2023-04-25T00:25:45;64022.78;;;8.29;95.20
41636;BME280;27623;51.966;4.602;2023-04-25T00:28:11;64044.16;;;8.30;95.53
41636;BME280;27623;51.966;4.602;2023-04-25T00:30:38;64043.63;;;8.44;94.81
41636;BME280;27623;51.966;4.602;2023-04-25T00:33:03;64061.94;;;8.30;94.37
41636;BME280;27623;51.966;4.602;2023-04-25T00:35:29;64034.19;;;8.18;94.78
41636;BME280;27623;51.966;4.602;2023-04-25T00:37:54;64014.44;;;8.26;94.66
41636;BME280;27623;51.966;4.602;2023-04-25T00:40:22;63995.06;;;8.10;95.33
41636;BME280;27623;51.966;4.602;2023-04-25T00:42:49;64056.31;;;8.22;94.74
41636;BME280;27623;51.966;4.602;2023-04-25T00:45:17;64008.47;;;8.06;94.83
41636;BME280;27623;51.966;4.602;2023-04-25T00:47:42;64024.25;;;8.07;95.47
41636;BME280;27623;51.966;4.602;2023-04-25T00:50:09;63997.25;;;8.05;95.38
41636;BME280;27623;51.966;4.602;2023-04-25T00:52:34;64007.94;;;8.06;96.00
41636;BME280;27623;51.966;4.602;2023-04-25T00:55:00;64022.63;;;8.05;96.23
41636;BME280;27623;51.966;4.602;2023-04-25T00:57:26;63996.53;;;7.95;96.99
41636;BME280;27623;51.966;4.602;2023-04-25T00:59:52;63987.09;;;8.05;96.95
41636;BME280;27623;51.966;4.602;2023-04-25T01:02:19;64012.84;;;8.03;97.06
41636;BME280;27623;51.966;4.602;2023-04-25T01:04:47;64010.47;;;8.06;97.24
41636;BME280;27623;51.966;4.602;2023-04-25T01:07:12;64020.44;;;8.10;96.30
41636;BME280;27623;51.966;4.602;2023-04-25T01:09:38;64024.44;;;8.09;96.61
41636;BME280;27623;51.966;4.602;2023-04-25T01:12:04;64029.13;;;8.18;95.55
41636;BME280;27623;51.966;4.602;2023-04-25T01:14:29;64037.09;;;8.16;96.39
41636;BME280;27623;51.966;4.602;2023-04-25T01:16:55;64032.03;;;8.23;96.78
41636;BME280;27623;51.966;4.602;2023-04-25T01:19:20;64001.59;;;8.09;98.10
41636;BME280;27623;51.966;4.602;2023-04-25T01:21:46;64069.56;;;8.30;97.57
41636;BME280;27623;51.966;4.602;2023-04-25T01:24:12;64016.81;;;8.16;98.00
41636;BME280;27623;51.966;4.602;2023-04-25T01:26:38;64047.44;;;8.19;98.28
41636;BME280;27623;51.966;4.602;2023-04-25T01:29:09;64024.59;;;8.19;97.74
41636;BME280;27623;51.966;4.602;2023-04-25T01:31:36;64048.72;;;8.30;96.16
41636;BME280;27623;51.966;4.602;2023-04-25T01:34:02;64036.00;;;8.15;95.68
41636;BME280;27623;51.966;4.602;2023-04-25T01:36:28;64034.94;;;8.14;97.08
41636;BME280;27623;51.966;4.602;2023-04-25T01:38:53;64006.31;;;7.97;95.14
41636;BME280;27623;51.966;4.602;2023-04-25T01:41:19;64051.06;;;8.06;96.20
41636;BME280;27623;51.966;4.602;2023-04-25T01:43:44;64015.00;;;7.98;96.64
41636;BME280;27623;51.966;4.602;2023-04-25T01:46:11;64008.84;;;7.97;96.98
41636;BME280;27623;51.966;4.602;2023-04-25T01:48:36;63990.72;;;7.92;96.46
41636;BME280;27623;51.966;4.602;2023-04-25T01:51:02;64004.13;;;7.95;96.42
41636;BME280;27623;51.966;4.602;2023-04-25T01:53:31;63970.63;;;7.73;97.94
41636;BME280;27623;51.966;4.602;2023-04-25T01:55:56;63994.72;;;7.63;98.11
41636;BME280;27623;51.966;4.602;2023-04-25T01:58:21;63972.25;;;7.75;98.51
41636;BME280;27623;51.966;4.602;2023-04-25T02:00:47;63994.34;;;7.79;97.23
41636;BME280;27623;51.966;4.602;2023-04-25T02:03:12;64006.50;;;7.78;95.81
41636;BME280;27623;51.966;4.602;2023-04-25T02:05:38;63977.50;;;7.77;96.51
41636;BME280;27623;51.966;4.602;2023-04-25T02:08:08;64001.59;;;7.81;96.40
41636;BME280;27623;51.966;4.602;2023-04-25T02:10:34;63998.16;;;7.82;96.23
41636;BME280;27623;51.966;4.602;2023-04-25T02:12:59;63967.38;;;7.77;96.78
41636;BME280;27623;51.966;4.602;2023-04-25T02:15:25;64010.84;;;7.82;96.62
41636;BME280;27623;51.966;4.602;2023-04-25T02:17:50;63989.28;;;7.79;96.49
41636;BME280;27623;51.966;4.602;2023-04-25T02:20:20;63957.03;;;7.82;97.04
41636;BME280;27623;51.966;4.602;2023-04-25T02:22:46;64015.19;;;8.01;95.28
41636;BME280;27623;51.966;4.602;2023-04-25T02:25:12;64000.88;;;7.99;95.36
41636;BME280;27623;51.966;4.602;2023-04-25T02:27:37;64019.16;;;8.00;95.55
41636;BME280;27623;51.966;4.602;2023-04-25T02:30:04;63973.16;;;7.94;95.61
41636;BME280;27623;51.966;4.602;2023-04-25T02:32:30;63987.09;;;7.91;96.12
41636;BME280;27623;51.966;4.602;2023-04-25T02:34:55;64011.22;;;7.87;96.54
41636;BME280;27623;51.966;4.602;2023-04-25T02:37:23;63985.28;;;7.94;94.41
41636;BME280;27623;51.966;4.602;2023-04-25T02:39:49;64006.31;;;7.97;92.12
41636;BME280;27623;51.966;4.602;2023-04-25T02:42:14;64036.56;;;8.09;92.24
41636;BME280;27623;51.966;4.602;2023-04-25T02:44:40;64005.94;;;7.99;92.82
41636;BME280;27623;51.966;4.602;2023-04-25T02:47:05;64021.34;;;8.02;91.92
41636;BME280;27623;51.966;4.602;2023-04-25T02:49:33;63994.16;;;7.98;92.01
41636;BME280;27623;51.966;4.602;2023-04-25T02:51:59;64008.66;;;7.94;92.08
41636;BME280;27623;51.966;4.602;2023-04-25T02:54:24;64004.84;;;7.98;91.23
41636;BME280;27623;51.966;4.602;2023-04-25T02:56:50;64009.03;;;8.00;92.08
41636;BME280;27623;51.966;4.602;2023-04-25T02:59:17;64040.56;;;8.08;91.54
41636;BME280;27623;51.966;4.602;2023-04-25T03:01:43;64010.28;;;8.03;91.54
41636;BME280;27623;51.966;4.602;2023-04-25T03:04:10;64047.78;;;8.17;89.76
41636;BME280;27623;51.966;4.602;2023-04-25T03:06:38;64003.03;;;8.15;90.40
41636;BME280;27623;51.966;4.602;2023-04-25T03:09:04;64006.66;;;8.09;91.54
41636;BME280;27623;51.966;4.602;2023-04-25T03:11:29;64019.16;;;8.21;91.05
41636;BME280;27623;51.966;4.602;2023-04-25T03:13:55;64018.78;;;8.16;91.70
41636;BME280;27623;51.966;4.602;2023-04-25T03:16:23;64010.47;;;7.99;91.75
41636;BME280;27623;51.966;4.602;2023-04-25T03:18:48;63987.09;;;7.91;92.98
41636;BME280;27623;51.966;4.602;2023-04-25T03:21:15;64028.06;;;7.96;93.63
41636;BME280;27623;51.966;4.602;2023-04-25T03:23:40;64021.16;;;7.99;93.12
41636;BME280;27623;51.966;4.602;2023-04-25T03:26:06;64016.47;;;8.04;92.63
41636;BME280;27623;51.966;4.602;2023-04-25T03:28:33;64026.41;;;8.02;93.69
41636;BME280;27623;51.966;4.602;2023-04-25T03:30:59;63985.81;;;8.09;93.70
41636;BME280;27623;51.966;4.602;2023-04-25T03:33:24;64001.22;;;8.18;93.48
41636;BME280;27623;51.966;4.602;2023-04-25T03:35:52;64006.28;;;8.11;94.09
41636;BME280;27623;51.966;4.602;2023-04-25T03:38:18;64022.59;;;8.12;93.88
41636;BME280;27623;51.966;4.602;2023-04-25T03:40:43;64013.75;;;8.02;93.68
41636;BME280;27623;51.966;4.602;2023-04-25T03:43:08;64030.41;;;8.08;92.96
41636;BME280;27623;51.966;4.602;2023-04-25T03:45:34;64000.31;;;8.06;92.05
41636;BME280;27623;51.966;4.602;2023-04-25T03:47:59;63974.03;;;8.07;92.50
41636;BME280;27623;51.966;4.602;2023-04-25T03:50:25;64029.31;;;8.07;93.50
41636;BME280;27623;51.966;4.602;2023-04-25T03:52:50;64022.59;;;8.12;92.88
41636;BME280;27623;51.966;4.602;2023-04-25T03:55:15;63999.25;;;8.05;93.55
41636;BME280;27623;51.966;4.602;2023-04-25T03:57:41;64032.94;;;8.01;93.65
41636;BME280;27623;51.966;4.602;2023-04-25T04:00:07;64020.44;;;8.03;93.99
41636;BME280;27623;51.966;4.602;2023-04-25T04:02:32;64011.75;;;7.95;93.33
41636;BME280;27623;51.966;4.602;2023-04-25T04:04:59;64031.50;;;8.02;95.03
41636;BME280;27623;51.966;4.602;2023-04-25T04:07:27;64046.88;;;8.18;94.93
41636;BME280;27623;51.966;4.602;2023-04-25T04:09:53;64023.88;;;8.16;95.33
41636;BME280;27623;51.966;4.602;2023-04-25T04:12:18;63999.56;;;8.17;96.02
41636;BME280;27623;51.966;4.602;2023-04-25T04:14:43;64009.72;;;8.17;96.49
41636;BME280;27623;51.966;4.602;2023-04-25T04:17:09;63994.88;;;8.08;98.05
41636;BME280;27623;51.966;4.602;2023-04-25T04:19:34;64012.84;;;8.03;98.55
41636;BME280;27623;51.966;4.602;2023-04-25T04:22:00;64002.69;;;8.03;98.73
41636;BME280;27623;51.966;4.602;2023-04-25T04:24:25;63999.41;;;8.00;98.96
41636;BME280;27623;51.966;4.602;2023-04-25T04:26:50;64015.00;;;7.98;99.55
41636;BME280;27623;51.966;4.602;2023-04-25T04:29:17;64027.84;;;8.15;98.74
41636;BME280;27623;51.966;4.602;2023-04-25T04:31:49;64040.53;;;8.15;99.03
41636;BME280;27623;51.966;4.602;2023-04-25T04:34:16;64026.41;;;8.16;99.64
41636;BME280;27623;51.966;4.602;2023-04-25T04:36:42;64066.47;;;8.22;99.22
41636;BME280;27623;51.966;4.602;2023-04-25T04:39:07;64043.09;;;8.22;99.23
41636;BME280;27623;51.966;4.602;2023-04-25T04:41:35;64039.63;;;8.16;99.16
41636;BME280;27623;51.966;4.602;2023-04-25T04:44:00;64022.06;;;8.26;99.51
41636;BME280;27623;51.966;4.602;2023-04-25T04:46:26;64015.88;;;8.25;99.73
41636;BME280;27623;51.966;4.602;2023-04-25T04:48:55;64024.97;;;8.17;100.00
41636;BME280;27623;51.966;4.602;2023-04-25T04:51:23;64015.38;;;8.03;100.00
41636;BME280;27623;51.966;4.602;2023-04-25T04:53:49;64026.78;;;8.14;100.00
41636;BME280;27623;51.966;4.602;2023-04-25T04:56:14;64017.19;;;8.07;100.00
41636;BME280;27623;51.966;4.602;2023-04-25T04:58:40;64024.03;;;8.11;100.00
41636;BME280;27623;51.966;4.602;2023-04-25T05:01:05;64027.69;;;8.19;100.00
41636;BME280;27623;51.966;4.602;2023-04-25T05:03:31;64017.88;;;8.17;99.45
41636;BME280;27623;51.966;4.602;2023-04-25T05:05:56;64018.06;;;8.20;96.60
41636;BME280;27623;51.966;4.602;2023-04-25T05:08:21;64028.59;;;8.18;96.18
41636;BME280;27623;51.966;4.602;2023-04-25T05:10:47;64043.44;;;8.27;96.01
41636;BME280;27623;51.966;4.602;2023-04-25T05:13:12;64033.47;;;8.22;95.85
41636;BME280;27623;51.966;4.602;2023-04-25T05:15:37;64048.34;;;8.24;94.92
41636;BME280;27623;51.966;4.602;2023-04-25T05:18:03;64037.47;;;8.28;94.73
41636;BME280;27623;51.966;4.602;2023-04-25T05:20:28;64047.25;;;8.23;95.96
41636;BME280;27623;51.966;4.602;2023-04-25T05:22:54;64098.75;;;8.34;96.44
41636;BME280;27623;51.966;4.602;2023-04-25T05:25:19;64053.41;;;8.24;96.69
41636;BME280;27623;51.966;4.602;2023-04-25T05:27:45;64059.03;;;8.25;96.68
41636;BME280;27623;51.966;4.602;2023-04-25T05:30:11;64046.34;;;8.18;96.78
41636;BME280;27623;51.966;4.602;2023-04-25T05:32:36;64022.41;;;8.17;95.71
41636;BME280;27623;51.966;4.602;2023-04-25T05:35:02;64038.56;;;8.22;95.70
41636;BME280;27623;51.966;4.602;2023-04-25T05:37:28;63995.06;;;8.10;95.60
41636;BME280;27623;51.966;4.602;2023-04-25T05:39:55;64043.81;;;8.18;95.37
41636;BME280;27623;51.966;4.602;2023-04-25T05:42:21;64057.78;;;8.21;95.69
41636;BME280;27623;51.966;4.602;2023-04-25T05:44:46;64025.84;;;8.22;96.64
41636;BME280;27623;51.966;4.602;2023-04-25T05:47:11;64013.72;;;8.16;97.04
41636;BME280;27623;51.966;4.602;2023-04-25T05:49:37;64044.16;;;8.23;97.21
41636;BME280;27623;51.966;4.602;2023-04-25T05:52:02;64038.56;;;8.15;96.88
41636;BME280;27623;51.966;4.602;2023-04-25T05:54:28;64006.66;;;8.16;96.47
41636;BME280;27623;51.966;4.602;2023-04-25T05:56:53;64048.34;;;8.24;96.15
41636;BME280;27623;51.966;4.602;2023-04-25T05:59:18;64007.22;;;8.10;95.60
41636;BME280;27623;51.966;4.602;2023-04-25T06:01:44;64030.41;;;8.15;95.05
41636;BME280;27623;51.966;4.602;2023-04-25T06:04:09;64026.78;;;8.14;94.06
41636;BME280;27623;51.966;4.602;2023-04-25T06:06:35;64002.13;;;8.17;93.66
41636;BME280;27623;51.966;4.602;2023-04-25T06:09:00;64008.28;;;8.18;92.47
41636;BME280;27623;51.966;4.602;2023-04-25T06:11:25;64055.94;;;8.32;89.58
41636;BME280;27623;51.966;4.602;2023-04-25T06:13:53;64026.94;;;8.31;88.40
41636;BME280;27623;51.966;4.602;2023-04-25T06:16:19;64033.66;;;8.32;86.53
41636;BME280;27623;51.966;4.602;2023-04-25T06:18:44;64056.50;;;8.39;86.03
41636;BME280;27623;51.966;4.602;2023-04-25T06:21:10;64006.81;;;8.33;85.58
41636;BME280;27623;51.966;4.602;2023-04-25T06:23:40;64066.28;;;8.41;87.68
41636;BME280;27623;51.966;4.602;2023-04-25T06:26:05;64028.56;;;8.39;90.96
41636;BME280;27623;51.966;4.602;2023-04-25T06:28:33;64050.34;;;8.17;92.47
41636;BME280;27623;51.966;4.602;2023-04-25T06:30:59;64053.06;;;8.19;92.79
41636;BME280;27623;51.966;4.602;2023-04-25T06:33:24;64056.50;;;8.25;92.97
41636;BME280;27623;51.966;4.602;2023-04-25T06:35:50;64046.53;;;8.27;94.23
41636;BME280;27623;51.966;4.602;2023-04-25T06:38:15;64038.91;;;8.13;94.29
41636;BME280;27623;51.966;4.602;2023-04-25T06:40:41;63984.56;;;8.05;96.05
41636;BME280;27623;51.966;4.602;2023-04-25T06:43:06;64022.41;;;8.24;95.37
41636;BME280;27623;51.966;4.602;2023-04-25T06:45:31;63990.50;;;8.11;95.80
41636;BME280;27623;51.966;4.602;2023-04-25T06:47:57;64057.22;;;8.21;96.13
41636;BME280;27623;51.966;4.602;2023-04-25T06:50:22;64034.75;;;8.33;96.13
41636;BME280;27623;51.966;4.602;2023-04-25T06:52:48;64013.16;;;8.22;95.50
41636;BME280;27623;51.966;4.602;2023-04-25T06:55:13;64031.13;;;8.32;95.04
41636;BME280;27623;51.966;4.602;2023-04-25T06:57:38;64078.09;;;8.43;94.81
41636;BME280;27623;51.966;4.602;2023-04-25T07:00:04;64070.81;;;8.55;94.27
41636;BME280;27623;51.966;4.602;2023-04-25T07:02:35;64073.88;;;8.63;92.23
41636;BME280;27623;51.966;4.602;2023-04-25T07:05:01;64051.97;;;8.47;95.61
41636;BME280;27623;51.966;4.602;2023-04-25T07:07:29;64055.22;;;8.43;93.84
41636;BME280;27623;51.966;4.602;2023-04-25T07:09:55;64034.75;;;8.47;93.05
41636;BME280;27623;51.966;4.602;2023-04-25T07:12:21;64043.44;;;8.48;93.32
41636;BME280;27623;51.966;4.602;2023-04-25T07:14:46;64054.47;;;8.54;92.65
41636;BME280;27623;51.966;4.602;2023-04-25T07:17:11;64088.94;;;8.67;90.14
41636;BME280;27623;51.966;4.602;2023-04-25T07:19:37;64084.22;;;8.65;90.84
41636;BME280;27623;51.966;4.602;2023-04-25T07:22:05;64088.75;;;8.65;90.39
41636;BME280;27623;51.966;4.602;2023-04-25T07:24:32;64107.09;;;8.65;90.49
41636;BME280;27623;51.966;4.602;2023-04-25T07:26:58;64063.38;;;8.65;91.42
41636;BME280;27623;51.966;4.602;2023-04-25T07:29:27;64081.69;;;8.65;92.17
41636;BME280;27623;51.966;4.602;2023-04-25T07:31:56;64086.22;;;8.65;90.92
41636;BME280;27623;51.966;4.602;2023-04-25T07:34:22;64110.34;;;8.61;85.54
41636;BME280;27623;51.966;4.602;2023-04-25T07:36:47;64090.75;;;8.71;88.24
41636;BME280;27623;51.966;4.602;2023-04-25T07:39:13;64101.63;;;8.74;87.86
41636;BME280;27623;51.966;4.602;2023-04-25T07:41:38;64092.91;;;8.80;86.79
41636;BME280;27623;51.966;4.602;2023-04-25T07:44:03;64100.72;;;8.83;86.94
41636;BME280;27623;51.966;4.602;2023-04-25T07:46:29;64092.72;;;8.78;86.98
41636;BME280;27623;51.966;4.602;2023-04-25T07:48:54;64116.88;;;8.88;85.70
41636;BME280;27623;51.966;4.602;2023-04-25T07:51:19;64119.03;;;8.98;86.64
41636;BME280;27623;51.966;4.602;2023-04-25T07:53:49;64163.50;;;9.08;83.91
41636;BME280;27623;51.966;4.602;2023-04-25T07:56:14;64102.66;;;9.11;84.07
41636;BME280;27623;51.966;4.602;2023-04-25T07:58:40;64160.03;;;9.17;85.55
41636;BME280;27623;51.966;4.602;2023-04-25T08:01:05;64134.78;;;9.19;84.95
41636;BME280;27623;51.966;4.602;2023-04-25T08:03:30;64163.84;;;9.20;85.10
41636;BME280;27623;51.966;4.602;2023-04-25T08:05:56;64164.56;;;9.16;82.56
41636;BME280;27623;51.966;4.602;2023-04-25T08:08:21;64116.47;;;9.12;79.31
41636;BME280;27623;51.966;4.602;2023-04-25T08:10:49;64127.00;;;9.03;79.60
41636;BME280;27623;51.966;4.602;2023-04-25T08:13:14;64151.50;;;9.11;78.40
41636;BME280;27623;51.966;4.602;2023-04-25T08:15:40;64152.25;;;9.14;78.20
41636;BME280;27623;51.966;4.602;2023-04-25T08:18:05;64136.03;;;9.30;78.36
41636;BME280;27623;51.966;4.602;2023-04-25T08:20:31;64187.59;;;9.54;76.47
41636;BME280;27623;51.966;4.602;2023-04-25T08:22:59;64201.91;;;9.70;77.01
41636;BME280;27623;51.966;4.602;2023-04-25T08:25:29;64180.28;;;9.74;75.18
41636;BME280;27623;51.966;4.602;2023-04-25T08:27:54;64194.47;;;9.73;73.47
41636;BME280;27623;51.966;4.602;2023-04-25T08:30:21;64168.13;;;9.67;73.02
41636;BME280;27623;51.966;4.602;2023-04-25T08:32:46;64219.22;;;9.55;73.86
41636;BME280;27623;51.966;4.602;2023-04-25T08:35:11;64149.25;;;9.52;73.65
41636;BME280;27623;51.966;4.602;2023-04-25T08:37:37;64159.63;;;9.47;74.65
41636;BME280;27623;51.966;4.602;2023-04-25T08:40:03;64175.25;;;9.38;73.71
41636;BME280;27623;51.966;4.602;2023-04-25T08:42:33;64142.94;;;9.34;73.91
41636;BME280;27623;51.966;4.602;2023-04-25T08:45:01;64186.72;;;9.35;73.72
41636;BME280;27623;51.966;4.602;2023-04-25T08:47:33;64155.63;;;9.41;73.29
41636;BME280;27623;51.966;4.602;2023-04-25T08:49:59;64223.72;;;9.69;71.44
41636;BME280;27623;51.966;4.602;2023-04-25T08:52:30;64202.44;;;9.78;69.12
41636;BME280;27623;51.966;4.602;2023-04-25T08:54:58;64197.88;;;9.85;71.42
41636;BME280;27623;51.966;4.602;2023-04-25T08:57:25;64263.69;;;9.87;72.96
41636;BME280;27623;51.966;4.602;2023-04-25T08:59:51;64222.97;;;9.80;72.31
41636;BME280;27623;51.966;4.602;2023-04-25T09:02:18;64209.88;;;9.82;71.75
41636;BME280;27623;51.966;4.602;2023-04-25T09:04:45;64240.56;;;10.06;72.39
41636;BME280;27623;51.966;4.602;2023-04-25T09:07:11;64273.25;;;10.29;70.63
41636;BME280;27623;51.966;4.602;2023-04-25T09:09:37;64291.22;;;10.46;68.87
41636;BME280;27623;51.966;4.602;2023-04-25T09:12:05;64290.50;;;10.50;67.18
41636;BME280;27623;51.966;4.602;2023-04-25T09:14:30;64322.53;;;10.56;67.65
41636;BME280;27623;51.966;4.602;2023-04-25T09:19:25;64313.38;;;10.72;68.85
41636;BME280;27623;51.966;4.602;2023-04-25T09:21:54;64301.19;;;10.65;66.02
41636;BME280;27623;51.966;4.602;2023-04-25T09:24:39;64280.66;;;10.55;66.04
41636;BME280;27623;51.966;4.602;2023-04-25T09:27:06;64301.97;;;10.54;66.71
41636;BME280;27623;51.966;4.602;2023-04-25T09:29:37;64276.13;;;10.56;65.91
41636;BME280;27623;51.966;4.602;2023-04-25T09:32:18;64295.31;;;10.83;66.66
41636;BME280;27623;51.966;4.602;2023-04-25T09:34:49;64337.34;;;10.94;63.46
41636;BME280;27623;51.966;4.602;2023-04-25T09:37:22;64337.50;;;11.03;64.11
41636;BME280;27623;51.966;4.602;2023-04-25T09:39:56;64374.75;;;11.33;62.93
41636;BME280;27623;51.966;4.602;2023-04-25T09:42:23;64406.75;;;11.61;65.80
41636;BME280;27623;51.966;4.602;2023-04-25T09:44:52;64428.81;;;11.62;69.40
41636;BME280;27623;51.966;4.602;2023-04-25T09:47:18;64429.09;;;11.89;72.03
41636;BME280;27623;51.966;4.602;2023-04-25T09:49:46;64443.84;;;11.95;71.50
41636;BME280;27623;51.966;4.602;2023-04-25T09:52:18;64447.75;;;11.78;69.43
41636;BME280;27623;51.966;4.602;2023-04-25T09:54:45;64422.63;;;11.61;70.88
41636;BME280;27623;51.966;4.602;2023-04-25T09:57:14;64442.22;;;11.87;73.29
41636;BME280;27623;51.966;4.602;2023-04-25T09:59:46;64485.56;;;12.15;73.63
41636;BME280;27623;51.966;4.602;2023-04-25T10:02:15;64508.97;;;12.51;73.52
41636;BME280;27623;51.966;4.602;2023-04-25T10:04:41;64549.13;;;12.48;68.95
41636;BME280;27623;51.966;4.602;2023-04-25T10:07:09;64565.66;;;12.73;69.85
41636;BME280;27623;51.966;4.602;2023-04-25T10:09:39;64558.19;;;12.76;67.78
41636;BME280;27623;51.966;4.602;2023-04-25T10:12:06;64540.09;;;12.73;67.93
41636;BME280;27623;51.966;4.602;2023-04-25T10:14:32;64520.88;;;12.46;66.40
41636;BME280;27623;51.966;4.602;2023-04-25T10:16:59;64452.53;;;12.11;64.90
41636;BME280;27623;51.966;4.602;2023-04-25T10:19:27;64446.81;;;11.79;67.01
41636;BME280;27623;51.966;4.602;2023-04-25T10:22:11;64380.91;;;11.49;69.31
41636;BME280;27623;51.966;4.602;2023-04-25T10:24:39;64345.97;;;11.30;71.87
41636;BME280;27623;51.966;4.602;2023-04-25T10:27:05;64388.44;;;11.25;73.03
41636;BME280;27623;51.966;4.602;2023-04-25T10:29:31;64352.59;;;11.08;72.24
41636;BME280;27623;51.966;4.602;2023-04-25T10:31:57;64358.19;;;11.30;71.69
41636;BME280;27623;51.966;4.602;2023-04-25T10:34:45;64453.19;;;11.76;69.46
41636;BME280;27623;51.966;4.602;2023-04-25T10:37:13;64460.47;;;11.85;71.69
41636;BME280;27623;51.966;4.602;2023-04-25T10:39:40;64414.91;;;11.68;66.65
41636;BME280;27623;51.966;4.602;2023-04-25T10:42:06;64410.75;;;11.60;66.82
41636;BME280;27623;51.966;4.602;2023-04-25T10:44:33;64417.56;;;11.40;63.93
41636;BME280;27623;51.966;4.602;2023-04-25T10:47:01;64392.19;;;11.57;67.35
41636;BME280;27623;51.966;4.602;2023-04-25T10:49:36;64436.22;;;11.88;62.68
41636;BME280;27623;51.966;4.602;2023-04-25T10:52:27;64478.63;;;12.18;64.50
41636;BME280;27623;51.966;4.602;2023-04-25T10:54:57;64496.22;;;12.44;63.21
41636;BME280;27623;51.966;4.602;2023-04-25T11:00:01;64579.81;;;13.00;58.98
41636;BME280;27623;51.966;4.602;2023-04-25T11:02:58;64584.63;;;12.88;59.59
41636;BME280;27623;51.966;4.602;2023-04-25T11:05:34;64544.72;;;12.65;57.88
41636;BME280;27623;51.966;4.602;2023-04-25T11:08:00;64537.00;;;12.72;55.89
41636;BME280;27623;51.966;4.602;2023-04-25T11:10:26;64530.22;;;12.78;53.44
41636;BME280;27623;51.966;4.602;2023-04-25T11:12:52;64580.13;;;13.13;54.79
41636;BME280;27623;51.966;4.602;2023-04-25T11:15:18;64622.59;;;13.50;53.41
41636;BME280;27623;51.966;4.602;2023-04-25T11:17:43;64672.56;;;13.77;51.46
41636;BME280;27623;51.966;4.602;2023-04-25T11:20:11;64691.78;;;13.73;51.55
41636;BME280;27623;51.966;4.602;2023-04-25T11:22:38;64668.75;;;13.73;52.26
41636;BME280;27623;51.966;4.602;2023-04-25T11:25:08;64661.94;;;13.86;51.38
41636;BME280;27623;51.966;4.602;2023-04-25T11:27:33;64664.72;;;13.74;50.03
41636;BME280;27623;51.966;4.602;2023-04-25T11:30:15;64655.88;;;13.88;50.25
41636;BME280;27623;51.966;4.602;2023-04-25T11:32:41;64711.31;;;14.27;51.62
41636;BME280;27623;51.966;4.602;2023-04-25T11:35:08;64685.22;;;14.13;48.65
41636;BME280;27623;51.966;4.602;2023-04-25T11:37:34;64693.97;;;13.83;49.21
41636;BME280;27623;51.966;4.602;2023-04-25T11:40:00;64673.88;;;13.73;49.70
41636;BME280;27623;51.966;4.602;2023-04-25T11:42:25;64639.47;;;13.72;51.09
41636;BME280;27623;51.966;4.602;2023-04-25T11:44:51;64651.09;;;13.55;49.64
41636;BME280;27623;51.966;4.602;2023-04-25T11:47:17;64663.75;;;13.90;52.40
41636;BME280;27623;51.966;4.602;2023-04-25T11:49:42;64696.06;;;14.06;48.53
41636;BME280;27623;51.966;4.602;2023-04-25T11:52:10;64663.84;;;13.69;51.36
41636;BME280;27623;51.966;4.602;2023-04-25T11:54:36;64644.84;;;13.61;50.54
41636;BME280;27623;51.966;4.602;2023-04-25T11:57:03;64670.06;;;13.70;52.21
41636;BME280;27623;51.966;4.602;2023-04-25T11:59:29;64628.75;;;13.65;51.84
41636;BME280;27623;51.966;4.602;2023-04-25T12:01:54;64622.91;;;13.55;50.22
41636;BME280;27623;51.966;4.602;2023-04-25T12:04:23;64684.47;;;13.79;50.82
41636;BME280;27623;51.966;4.602;2023-04-25T12:06:51;64638.59;;;13.67;47.96
41636;BME280;27623;51.966;4.602;2023-04-25T12:09:35;64704.63;;;14.12;47.69
41636;BME280;27623;51.966;4.602;2023-04-25T12:12:01;64715.31;;;14.40;47.86
41636;BME280;27623;51.966;4.602;2023-04-25T12:14:36;64788.97;;;14.75;46.30
41636;BME280;27623;51.966;4.602;2023-04-25T12:17:04;64826.16;;;14.72;44.65
41636;BME280;27623;51.966;4.602;2023-04-25T12:19:36;64726.09;;;14.41;44.10
41636;BME280;27623;51.966;4.602;2023-04-25T12:22:19;64762.81;;;14.61;43.28
41636;BME280;27623;51.966;4.602;2023-04-25T12:24:46;64827.13;;;15.01;43.92
41636;BME280;27623;51.966;4.602;2023-04-25T12:27:14;64734.09;;;14.53;43.65
41636;BME280;27623;51.966;4.602;2023-04-25T12:29:50;64707.25;;;13.97;46.79
41636;BME280;27623;51.966;4.602;2023-04-25T12:32:16;64696.53;;;13.83;47.96
41636;BME280;27623;51.966;4.602;2023-04-25T12:34:45;64685.97;;;13.70;48.06
41636;BME280;27623;51.966;4.602;2023-04-25T12:37:10;64647.97;;;13.54;48.39
41636;BME280;27623;51.966;4.602;2023-04-25T12:39:38;64673.41;;;13.97;47.86
41636;BME280;27623;51.966;4.602;2023-04-25T12:42:04;64723.22;;;14.29;46.90
41636;BME280;27623;51.966;4.602;2023-04-25T12:44:29;64718.75;;;14.08;45.47
41636;BME280;27623;51.966;4.602;2023-04-25T12:46:55;64642.72;;;13.83;45.44
41636;BME280;27623;51.966;4.602;2023-04-25T12:49:20;64637.25;;;13.77;45.18
41636;BME280;27623;51.966;4.602;2023-04-25T12:51:46;64652.53;;;13.99;46.84
41636;BME280;27623;51.966;4.602;2023-04-25T12:54:12;64702.66;;;13.98;47.42
41636;BME280;27623;51.966;4.602;2023-04-25T12:56:38;64674.19;;;13.86;49.20
41636;BME280;27623;51.966;4.602;2023-04-25T12:59:06;64664.22;;;14.05;50.21
41636;BME280;27623;51.966;4.602;2023-04-25T13:01:32;64654.03;;;13.91;50.41
41636;BME280;27623;51.966;4.602;2023-04-25T13:03:57;64652.34;;;13.65;49.63
41636;BME280;27623;51.966;4.602;2023-04-25T13:06:26;64625.63;;;13.64;49.73
41636;BME280;27623;51.966;4.602;2023-04-25T13:08:51;64696.44;;;14.04;48.02
41636;BME280;27623;51.966;4.602;2023-04-25T13:11:17;64695.94;;;14.27;46.70